createdAt,value
2022-08-22T00:03:11.355Z,10.93
2022-08-22T00:03:12.378Z,15.50
2022-08-22T01:10:37.559Z,11.68
2022-08-22T04:05:09.097Z,13.95
2022-08-22T04:08:01.782Z,10.87
2022-08-22T04:10:32.014Z,14.45
2022-08-22T04:13:11.192Z,13.35
2022-08-22T04:16:11.988Z,11.60
2022-08-22T04:18:52.903Z,12.48
2022-08-22T04:21:27.597Z,10.83
2022-08-22T04:24:15.806Z,15.40
2022-08-22T04:26:49.096Z,17.80
2022-08-22T04:29:26.992Z,14.20
2022-08-22T04:32:02.774Z,17.13
2022-08-22T04:34:43.336Z,17.93
2022-08-22T04:37:22.397Z,13.20
2022-08-22T04:40:16.142Z,13.50
2022-08-22T04:42:51.748Z,13.13
2022-08-22T04:45:26.234Z,9.88
2022-08-22T04:48:16.112Z,14.63
2022-08-22T04:50:46.348Z,12.82
2022-08-22T04:53:34.801Z,16.23
2022-08-22T04:56:28.319Z,13.55
2022-08-22T04:59:00.043Z,12.77
2022-08-22T05:01:38.990Z,14.23
2022-08-22T05:04:14.913Z,15.52
2022-08-22T05:06:46.610Z,15.05
2022-08-22T05:09:21.000Z,12.90
2022-08-22T05:11:52.758Z,12.30
2022-08-22T05:14:38.312Z,12.40
2022-08-22T05:17:10.576Z,9.95
2022-08-22T05:19:45.290Z,16.25
2022-08-22T05:22:19.179Z,14.90
2022-08-22T05:24:50.097Z,16.30
2022-08-22T05:27:21.004Z,11.73
2022-08-22T05:29:51.264Z,15.48
2022-08-22T05:32:27.165Z,11.32
2022-08-22T05:35:01.167Z,14.50
2022-08-22T05:37:42.363Z,17.02
2022-08-22T05:40:19.652Z,15.10
2022-08-22T05:42:46.901Z,13.70
2022-08-22T05:45:17.585Z,13.30
2022-08-22T05:47:50.132Z,11.32
2022-08-22T05:50:43.173Z,13.40
2022-08-22T05:53:13.103Z,16.00
2022-08-22T05:56:04.251Z,16.92
2022-08-22T05:58:43.436Z,12.77
2022-08-22T06:01:39.112Z,17.25
2022-08-22T06:04:30.216Z,9.75
2022-08-22T06:07:10.105Z,17.47
2022-08-22T06:10:01.322Z,12.25
2022-08-22T06:12:56.332Z,15.48
2022-08-22T06:15:40.372Z,12.02
2022-08-22T06:18:13.127Z,11.73
2022-08-22T06:20:46.044Z,11.13
2022-08-22T06:23:17.479Z,10.90
2022-08-22T06:25:48.459Z,16.90
2022-08-22T06:28:22.569Z,15.40
2022-08-22T06:30:53.528Z,13.23
2022-08-22T06:33:27.934Z,17.87
2022-08-22T06:36:30.758Z,15.77
2022-08-22T06:39:23.879Z,15.23
2022-08-22T06:42:05.485Z,14.10
2022-08-22T06:44:34.376Z,16.20
2022-08-22T06:47:06.081Z,18.07
2022-08-22T06:49:36.137Z,18.80
2022-08-22T06:52:11.701Z,27.02
2022-08-22T06:54:43.365Z,15.70
2022-08-22T06:57:27.680Z,19.10
2022-08-22T06:59:56.953Z,18.07
2022-08-22T07:02:36.741Z,13.02
2022-08-22T07:05:05.686Z,19.80
2022-08-22T07:07:32.574Z,14.15
2022-08-22T07:10:00.321Z,20.10
2022-08-22T07:12:31.484Z,21.90
2022-08-22T07:15:11.579Z,15.68
2022-08-22T07:17:49.524Z,18.17
2022-08-22T07:20:24.828Z,15.68
2022-08-22T07:22:54.251Z,20.67
2022-08-22T07:25:23.036Z,17.93
2022-08-22T07:28:03.949Z,20.48
2022-08-22T07:31:01.647Z,22.98
2022-08-22T07:33:44.184Z,15.85
2022-08-22T07:36:31.660Z,20.85
2022-08-22T07:39:30.184Z,19.40
2022-08-22T07:42:16.120Z,13.88
2022-08-22T07:45:08.839Z,15.65
2022-08-22T07:48:22.620Z,16.27
2022-08-22T07:51:08.655Z,15.88
2022-08-22T07:53:44.346Z,16.93
2022-08-22T07:56:25.347Z,17.02
2022-08-22T07:59:12.716Z,13.75
2022-08-22T08:01:45.807Z,18.80
2022-08-22T08:04:17.729Z,16.40
2022-08-22T08:06:52.692Z,17.97
2022-08-22T08:09:20.534Z,15.52
2022-08-22T08:11:51.178Z,11.30
2022-08-22T08:14:20.613Z,19.52
2022-08-22T08:17:10.545Z,19.58
2022-08-22T08:19:41.737Z,22.23
2022-08-22T08:22:16.833Z,17.92
2022-08-22T08:24:46.992Z,17.30
2022-08-22T08:27:36.704Z,17.70
2022-08-22T08:30:22.032Z,15.23
2022-08-22T08:32:57.534Z,20.20
2022-08-22T08:36:02.881Z,16.08
2022-08-22T08:38:37.883Z,19.75
2022-08-22T08:41:10.889Z,13.13
2022-08-22T08:44:07.635Z,15.05
2022-08-22T08:47:06.397Z,15.63
2022-08-22T08:49:58.005Z,13.27
2022-08-22T08:52:33.969Z,12.68
2022-08-22T08:55:19.943Z,16.60
2022-08-22T09:00:57.088Z,17.67
2022-08-22T09:04:15.324Z,13.70
2022-08-22T09:07:08.720Z,15.75
2022-08-22T09:09:43.983Z,15.30
2022-08-22T09:12:59.744Z,13.23
2022-08-22T09:15:58.516Z,12.07
2022-08-22T09:18:42.198Z,10.45
2022-08-22T09:21:30.456Z,13.30
2022-08-22T09:24:16.031Z,10.10
2022-08-22T09:26:57.347Z,12.35
2022-08-22T09:29:54.597Z,12.67
2022-08-22T09:32:54.602Z,11.60
2022-08-22T09:35:43.150Z,16.92
2022-08-22T09:38:33.145Z,9.45
2022-08-22T09:40:15.241Z,14.40
2022-08-22T09:41:18.069Z,15.15
2022-08-22T09:44:00.922Z,8.57
2022-08-22T09:46:48.263Z,8.30
2022-08-22T09:49:42.026Z,9.70
2022-08-22T09:52:34.061Z,10.27
2022-08-22T09:55:17.781Z,12.43
2022-08-22T09:58:03.117Z,12.53
2022-08-22T10:01:03.039Z,11.88
2022-08-22T10:04:12.128Z,12.48
2022-08-22T10:06:54.697Z,12.20
2022-08-22T10:09:31.380Z,12.48
2022-08-22T10:12:13.806Z,13.27
2022-08-22T10:14:50.480Z,9.98
2022-08-22T10:17:41.087Z,15.50
2022-08-22T10:20:27.761Z,11.68
2022-08-22T10:22:57.594Z,9.45
2022-08-22T10:25:42.239Z,17.87
2022-08-22T10:28:41.536Z,9.73
2022-08-22T10:31:58.734Z,10.10
2022-08-22T10:34:37.060Z,13.63
2022-08-22T10:37:30.319Z,10.90
2022-08-22T10:40:14.339Z,17.20
2022-08-22T10:43:16.737Z,14.32
2022-08-22T10:45:46.870Z,13.73
2022-08-22T10:48:49.394Z,10.52
2022-08-22T10:51:52.042Z,9.85
2022-08-22T10:54:48.707Z,14.23
2022-08-22T10:57:28.936Z,12.95
2022-08-22T11:00:13.147Z,12.82
2022-08-22T11:02:53.602Z,16.30
2022-08-22T11:05:27.268Z,11.57
2022-08-22T11:08:19.412Z,9.97
2022-08-22T11:11:12.556Z,13.50
2022-08-22T11:13:45.465Z,10.82
2022-08-22T11:16:55.213Z,13.77
2022-08-22T11:20:10.148Z,15.70
2022-08-22T11:23:03.627Z,14.37
2022-08-22T11:26:05.199Z,13.23
2022-08-22T11:29:13.598Z,12.02
2022-08-22T11:32:05.957Z,9.40
2022-08-22T11:34:44.842Z,14.70
2022-08-22T11:37:43.267Z,9.63
2022-08-22T11:40:32.669Z,13.25
2022-08-22T11:43:03.218Z,12.95
2022-08-22T11:45:44.432Z,11.30
2022-08-22T11:48:36.805Z,13.80
2022-08-22T11:51:25.497Z,8.90
2022-08-22T11:54:33.426Z,11.20
2022-08-22T11:57:09.819Z,15.68
2022-08-22T11:59:43.130Z,11.57
2022-08-22T12:02:26.532Z,9.40
2022-08-22T12:04:58.939Z,13.30
2022-08-22T12:07:37.754Z,8.70
2022-08-22T12:10:25.629Z,11.33
2022-08-22T12:13:07.340Z,11.82
2022-08-22T12:16:00.627Z,13.05
2022-08-22T12:18:41.884Z,9.73
2022-08-22T12:21:27.411Z,10.00
2022-08-22T12:24:20.955Z,15.70
2022-08-22T12:27:29.047Z,15.13
2022-08-22T12:30:16.664Z,13.10
2022-08-22T12:33:22.992Z,11.20
2022-08-22T12:36:22.408Z,10.85
2022-08-22T12:39:15.356Z,17.73
2022-08-22T12:42:04.108Z,12.67
2022-08-22T12:45:00.536Z,12.68
2022-08-22T12:47:48.373Z,10.23
2022-08-22T12:50:49.913Z,9.77
2022-08-22T12:53:54.745Z,11.57
2022-08-22T12:56:49.121Z,9.73
2022-08-22T12:59:25.042Z,13.10
2022-08-22T13:01:57.113Z,11.43
2022-08-22T13:04:33.240Z,9.85
2022-08-22T13:07:18.078Z,10.40
2022-08-22T13:10:14.517Z,9.10
2022-08-22T13:12:50.180Z,9.23
2022-08-22T13:15:31.312Z,9.37
2022-08-22T13:18:18.833Z,11.35
2022-08-22T13:20:51.712Z,11.30
2022-08-22T13:23:39.906Z,14.07
2022-08-22T13:26:34.098Z,12.40
2022-08-22T13:29:26.019Z,8.13
2022-08-22T13:32:01.656Z,10.17
2022-08-22T13:34:45.622Z,9.18
2022-08-22T13:37:24.468Z,7.55
2022-08-22T13:39:57.805Z,10.98
2022-08-22T13:42:31.168Z,8.95
2022-08-22T13:45:05.041Z,12.53
2022-08-22T13:47:35.919Z,9.93
2022-08-22T13:50:07.088Z,8.65
2022-08-22T13:52:49.390Z,8.18
2022-08-22T13:55:22.423Z,10.43
2022-08-22T13:57:58.581Z,11.13
2022-08-22T14:01:05.260Z,8.67
2022-08-22T14:03:52.195Z,7.05
2022-08-22T14:06:37.786Z,10.10
2022-08-22T14:09:32.563Z,9.27
2022-08-22T14:12:28.682Z,11.27
2022-08-22T14:15:03.366Z,9.07
2022-08-22T14:17:43.571Z,14.33
2022-08-22T14:20:32.347Z,10.35
2022-08-22T14:23:22.402Z,9.05
2022-08-22T14:25:51.600Z,8.02
2022-08-22T14:28:29.358Z,12.48
2022-08-22T14:31:07.265Z,12.97
2022-08-22T14:33:40.601Z,6.68
2022-08-22T14:36:36.096Z,10.30
2022-08-22T14:39:11.829Z,10.00
2022-08-22T14:41:52.588Z,10.05
2022-08-22T14:44:36.753Z,11.03
2022-08-22T14:47:34.480Z,7.20
2022-08-22T14:50:00.104Z,8.38
2022-08-22T14:52:38.004Z,10.88
2022-08-22T14:55:20.162Z,8.60
2022-08-22T14:58:00.117Z,13.00
2022-08-22T15:00:38.252Z,8.67
2022-08-22T15:03:32.553Z,12.33
2022-08-22T15:06:05.142Z,11.63
2022-08-22T15:08:50.492Z,11.20
2022-08-22T15:11:17.294Z,11.02
2022-08-22T15:13:58.748Z,12.18
2022-08-22T15:16:38.061Z,8.87
2022-08-22T15:19:36.863Z,10.20
2022-08-22T15:22:27.768Z,12.95
2022-08-22T15:25:15.226Z,10.95
2022-08-22T15:27:48.712Z,6.15
2022-08-22T15:30:21.058Z,10.00
2022-08-22T15:32:49.238Z,9.83
2022-08-22T15:35:28.313Z,8.25
2022-08-22T15:38:03.143Z,9.52
2022-08-22T15:40:44.016Z,11.82
2022-08-22T15:43:33.719Z,9.95
2022-08-22T15:46:20.860Z,7.87
2022-08-22T15:49:19.921Z,6.55
2022-08-22T15:51:52.400Z,6.50
2022-08-22T15:54:24.850Z,7.78
2022-08-22T15:56:52.719Z,11.68
2022-08-22T15:59:25.443Z,8.37
2022-08-22T16:02:04.720Z,10.10
2022-08-22T16:04:39.354Z,19.52
2022-08-22T16:07:37.369Z,9.35
2022-08-22T16:10:11.083Z,7.55
2022-08-22T16:12:45.978Z,10.50
2022-08-22T16:15:56.922Z,11.30
2022-08-22T16:18:34.506Z,11.00
2022-08-22T16:21:16.187Z,10.63
2022-08-22T16:23:49.605Z,9.95
2022-08-22T16:26:29.078Z,7.30
2022-08-22T16:29:04.147Z,8.18
2022-08-22T16:31:45.976Z,6.87
2022-08-22T16:34:23.337Z,7.67
2022-08-22T16:37:08.690Z,12.48
2022-08-22T16:39:53.614Z,7.75
2022-08-22T16:42:24.053Z,9.30
2022-08-22T16:45:05.945Z,11.95
2022-08-22T16:47:32.941Z,7.77
2022-08-22T16:50:26.379Z,7.40
2022-08-22T16:53:10.109Z,7.43
2022-08-22T16:56:02.866Z,8.27
2022-08-22T16:58:57.824Z,6.90
2022-08-22T17:01:51.198Z,9.38
2022-08-22T17:04:33.344Z,6.40
2022-08-22T17:07:29.580Z,6.97
2022-08-22T17:10:16.448Z,10.82
2022-08-22T17:12:59.267Z,10.48
2022-08-22T17:15:39.240Z,5.22
2022-08-22T17:18:15.460Z,6.68
2022-08-22T17:21:12.527Z,5.85
2022-08-22T17:23:57.672Z,7.13
2022-08-22T17:26:55.139Z,6.30
2022-08-22T17:30:03.735Z,6.72
2022-08-22T17:32:40.555Z,11.23
2022-08-22T17:35:26.211Z,7.80
2022-08-22T17:38:06.825Z,5.05
2022-08-22T17:40:47.186Z,6.68
2022-08-22T17:43:20.660Z,8.30
2022-08-22T17:45:56.670Z,6.67
2022-08-22T17:48:29.592Z,7.05
2022-08-22T17:51:28.286Z,6.05
2022-08-22T17:54:20.111Z,6.35
2022-08-22T17:57:06.187Z,6.65
2022-08-22T17:59:44.558Z,5.97
2022-08-22T18:02:39.399Z,6.83
2022-08-22T18:05:38.533Z,7.95
2022-08-22T18:11:40.702Z,8.07
2022-08-22T18:14:25.680Z,6.70
2022-08-22T18:16:55.462Z,6.53
2022-08-22T18:20:01.031Z,7.00
2022-08-22T18:22:51.239Z,7.32
2022-08-22T18:25:18.116Z,8.60
2022-08-22T18:27:47.905Z,7.47
2022-08-22T18:30:22.179Z,7.22
2022-08-22T18:32:59.458Z,6.10
2022-08-22T18:36:09.565Z,5.78
2022-08-22T18:38:36.664Z,6.55
2022-08-22T18:41:31.485Z,5.78
2022-08-22T18:43:59.366Z,7.45
2022-08-22T18:46:38.053Z,8.93
2022-08-22T18:49:32.559Z,10.05
2022-08-22T18:52:20.590Z,6.57
2022-08-22T18:55:06.394Z,5.72
2022-08-22T18:57:54.850Z,12.80
2022-08-22T19:00:59.609Z,7.27
2022-08-22T19:03:51.745Z,13.07
2022-08-22T19:06:56.626Z,8.20
2022-08-22T19:09:32.426Z,7.55
2022-08-22T19:12:26.959Z,6.85
2022-08-22T19:15:29.567Z,8.40
2022-08-22T19:18:31.355Z,8.98
2022-08-22T19:21:42.260Z,8.98
2022-08-22T19:24:29.866Z,11.10
2022-08-22T19:27:18.526Z,8.48
2022-08-22T19:29:45.385Z,7.57
2022-08-22T19:32:45.274Z,16.25
2022-08-22T19:35:40.218Z,9.77
2022-08-22T19:38:14.099Z,9.27
2022-08-22T19:40:53.258Z,7.90
2022-08-22T19:43:37.256Z,6.53
2022-08-22T19:46:32.611Z,10.00
2022-08-22T19:48:59.787Z,11.63
2022-08-22T19:51:28.751Z,10.63
2022-08-22T19:54:02.004Z,12.55
2022-08-22T19:56:54.935Z,7.17
2022-08-22T19:59:44.447Z,12.35
2022-08-22T20:02:38.815Z,8.63
2022-08-22T20:05:30.499Z,11.32
2022-08-22T20:08:11.311Z,7.30
2022-08-22T20:10:56.009Z,11.67
2022-08-22T20:13:28.371Z,9.23
2022-08-22T20:16:18.728Z,6.55
2022-08-22T20:19:25.814Z,9.52
2022-08-22T20:22:16.184Z,9.95
2022-08-22T20:24:52.384Z,12.80
2022-08-22T20:27:28.512Z,8.43
2022-08-22T20:30:08.063Z,10.85
2022-08-22T20:32:51.164Z,10.82
2022-08-22T20:35:27.039Z,13.02
2022-08-22T20:38:09.207Z,10.17
2022-08-22T20:40:56.661Z,10.85
2022-08-22T20:43:35.201Z,12.13
2022-08-22T20:46:36.550Z,12.30
2022-08-22T20:49:10.889Z,8.63
2022-08-22T20:51:37.848Z,9.23
2022-08-22T20:54:19.747Z,9.80
2022-08-22T20:57:34.757Z,13.18
2022-08-22T21:00:13.863Z,10.45
2022-08-22T21:02:58.858Z,13.57
2022-08-22T21:05:34.154Z,15.27
2022-08-22T21:08:06.889Z,13.43
2022-08-22T21:10:55.870Z,11.57
2022-08-22T21:13:27.278Z,11.32
2022-08-22T21:16:11.879Z,14.73
2022-08-22T21:18:41.978Z,11.93
2022-08-22T21:21:27.088Z,11.38
2022-08-22T21:24:00.522Z,11.10
2022-08-22T21:26:36.404Z,11.93
2022-08-22T21:29:21.247Z,10.43
2022-08-22T21:31:59.239Z,11.30
2022-08-22T21:34:43.790Z,11.10
2022-08-22T21:37:33.613Z,9.80
2022-08-22T21:40:09.164Z,12.88
2022-08-22T21:42:59.435Z,10.30
2022-08-22T21:45:45.158Z,12.07
2022-08-22T21:48:38.446Z,8.57
2022-08-22T21:51:25.178Z,10.88
2022-08-22T21:54:18.234Z,12.10
2022-08-22T21:56:46.098Z,9.27
2022-08-22T21:59:51.844Z,15.40
2022-08-22T22:02:36.714Z,19.92
2022-08-22T22:05:30.109Z,11.23
2022-08-22T22:07:57.078Z,12.18
2022-08-22T22:10:25.460Z,10.80
2022-08-22T22:12:56.076Z,13.37
2022-08-22T22:15:26.470Z,13.52
2022-08-22T22:17:54.678Z,10.07
2022-08-22T22:20:24.027Z,10.07
2022-08-22T22:22:51.000Z,14.20
2022-08-22T22:25:40.415Z,14.83
2022-08-22T22:28:31.879Z,13.07
2022-08-22T22:30:59.054Z,11.38
2022-08-22T22:33:30.013Z,11.60
2022-08-22T22:36:02.737Z,12.23
2022-08-22T22:38:29.667Z,11.07
2022-08-22T22:40:56.875Z,9.25
2022-08-22T22:43:23.826Z,11.55
2022-08-22T22:45:51.140Z,8.35
2022-08-22T22:48:23.907Z,15.90
2022-08-22T22:50:52.801Z,19.00
2022-08-22T22:53:21.450Z,17.33
2022-08-22T22:56:00.870Z,13.07
2022-08-22T22:58:28.836Z,18.70
